createdAt,value
2017-03-09T00:02:02.895Z,9.9
2017-03-09T00:07:03.431Z,9.9
2017-03-09T00:12:02.944Z,10.0
2017-03-09T00:17:03.534Z,10.0
2017-03-09T00:22:02.909Z,10.0
2017-03-09T00:27:03.265Z,10.0
2017-03-09T00:32:03.668Z,10.0
2017-03-09T00:37:03.033Z,10.0
2017-03-09T00:42:03.528Z,10.1
2017-03-09T00:47:03.041Z,10.1
2017-03-09T00:52:02.859Z,10.1
2017-03-09T00:57:03.289Z,10.1
2017-03-09T01:02:02.852Z,10.2
2017-03-09T01:07:02.929Z,10.2
2017-03-09T01:12:03.342Z,10.2
2017-03-09T01:17:03.026Z,10.3
2017-03-09T01:22:03.573Z,10.4
2017-03-09T01:27:02.713Z,10.4
2017-03-09T01:32:03.204Z,10.3
2017-03-09T01:37:03.107Z,10.3
2017-03-09T01:42:03.302Z,10.3
2017-03-09T01:47:03.496Z,10.3
2017-03-09T01:52:02.913Z,10.4
2017-03-09T01:57:03.343Z,10.4
2017-03-09T02:02:02.739Z,7.2
2017-03-09T02:07:03.048Z,10.4
2017-03-09T02:12:03.615Z,10.4
2017-03-09T02:17:03.073Z,10.4
2017-03-09T02:22:03.556Z,10.4
2017-03-09T02:27:02.801Z,10.4
2017-03-09T02:32:03.217Z,10.5
2017-03-09T02:37:03.128Z,10.5
2017-03-09T02:42:03.514Z,10.5
2017-03-09T02:47:03.225Z,10.6
2017-03-09T02:52:02.717Z,10.6
2017-03-09T02:57:02.944Z,10.6
2017-03-09T03:02:03.218Z,10.6
2017-03-09T03:07:02.844Z,10.6
2017-03-09T03:12:03.399Z,10.6
2017-03-09T03:17:03.096Z,10.7
2017-03-09T03:22:03.405Z,10.6
2017-03-09T03:27:02.892Z,10.8
2017-03-09T03:32:03.597Z,10.8
2017-03-09T03:37:03.028Z,10.8
2017-03-09T03:42:03.082Z,10.8
2017-03-09T03:47:03.306Z,10.8
2017-03-09T03:52:03.459Z,10.8
2017-03-09T03:57:02.672Z,10.9
2017-03-09T04:02:03.037Z,10.8
2017-03-09T04:07:03.292Z,10.9
2017-03-09T04:12:03.571Z,10.8
2017-03-09T04:17:02.994Z,10.9
2017-03-09T04:22:03.238Z,11.0
2017-03-09T04:27:03.363Z,11.0
2017-03-09T04:32:03.570Z,11.0
2017-03-09T04:37:02.748Z,11.2
2017-03-09T04:42:03.000Z,11.2
2017-03-09T04:47:03.251Z,11.3
2017-03-09T04:52:03.384Z,11.3
2017-03-09T04:57:03.485Z,11.3
2017-03-09T05:02:03.630Z,11.3
2017-03-09T05:07:02.988Z,11.2
2017-03-09T05:12:03.308Z,11.3
2017-03-09T05:17:03.518Z,11.3
2017-03-09T05:22:02.965Z,11.3
2017-03-09T05:27:03.605Z,11.3
2017-03-09T05:32:13.105Z,11.3
2017-03-09T05:37:03.247Z,11.2
2017-03-09T05:42:02.865Z,11.2
2017-03-09T05:47:17.223Z,11.2
2017-03-09T05:52:03.028Z,11.2
2017-03-09T05:57:03.566Z,11.2
2017-03-09T06:02:12.854Z,11.3
2017-03-09T06:07:03.485Z,11.2
2017-03-09T06:12:03.145Z,11.3
2017-03-09T06:17:13.323Z,11.3
2017-03-09T06:22:02.953Z,11.4
2017-03-09T06:27:03.395Z,11.5
2017-03-09T06:32:17.083Z,11.5
2017-03-09T06:37:03.182Z,11.6
2017-03-09T06:42:03.177Z,11.7
2017-03-09T06:47:14.113Z,11.7
2017-03-09T06:52:02.736Z,11.8
2017-03-09T06:57:02.720Z,11.8
2017-03-09T07:02:13.686Z,12.0
2017-03-09T07:07:03.370Z,12.0
2017-03-09T07:12:03.498Z,12.0
2017-03-09T07:17:13.722Z,12.1
2017-03-09T07:22:03.292Z,12.1
2017-03-09T07:27:02.847Z,12.2
2017-03-09T07:32:13.123Z,12.2
2017-03-09T07:37:03.081Z,12.3
2017-03-09T07:42:02.822Z,12.4
2017-03-09T07:47:16.546Z,12.3
2017-03-09T07:52:03.174Z,12.3
2017-03-09T07:57:03.361Z,12.3
2017-03-09T08:02:12.804Z,12.3
2017-03-09T08:07:02.911Z,12.2
2017-03-09T08:12:02.986Z,12.2
2017-03-09T08:17:16.937Z,12.2
2017-03-09T08:22:03.212Z,12.2
2017-03-09T08:27:03.685Z,12.3
2017-03-09T08:32:13.288Z,12.2
2017-03-09T08:37:02.997Z,12.3
2017-03-09T08:42:03.489Z,12.5
2017-03-09T08:47:16.874Z,12.6
2017-03-09T08:52:02.738Z,12.7
2017-03-09T08:57:02.922Z,12.6
2017-03-09T09:02:13.529Z,12.6
2017-03-09T09:07:03.674Z,12.6
2017-03-09T09:12:03.057Z,12.5
2017-03-09T09:17:14.297Z,12.5
2017-03-09T09:22:03.213Z,12.5
2017-03-09T09:27:03.253Z,12.5
2017-03-09T09:32:16.840Z,12.5
2017-03-09T09:37:02.795Z,12.5
2017-03-09T09:42:03.168Z,12.4
2017-03-09T09:47:14.461Z,12.4
2017-03-09T09:52:03.184Z,12.4
2017-03-09T09:57:03.030Z,12.4
2017-03-09T10:02:12.859Z,12.6
2017-03-09T10:07:02.669Z,12.5
2017-03-09T10:12:02.989Z,12.6
2017-03-09T10:17:17.139Z,12.8
2017-03-09T10:22:03.378Z,12.8
2017-03-09T10:27:03.253Z,13.1
2017-03-09T10:32:13.503Z,13.1
2017-03-09T10:37:02.792Z,13.3
2017-03-09T10:42:03.415Z,13.4
2017-03-09T10:47:17.261Z,13.5
2017-03-09T10:52:02.679Z,13.5
2017-03-09T10:57:03.450Z,13.5
2017-03-09T11:02:12.238Z,13.5
2017-03-09T11:07:03.381Z,13.5
2017-03-09T11:12:03.960Z,13.6
2017-03-09T11:17:18.082Z,13.7
2017-03-09T11:22:03.214Z,13.7
2017-03-09T11:27:03.306Z,13.9
2017-03-09T11:32:13.589Z,14.0
2017-03-09T11:37:03.072Z,13.9
2017-03-09T11:42:03.063Z,13.7
2017-03-09T11:47:17.561Z,13.6
2017-03-09T11:52:03.041Z,13.6
2017-03-09T11:57:03.781Z,13.7
2017-03-09T12:02:17.598Z,13.8
2017-03-09T12:07:03.492Z,13.7
2017-03-09T12:12:03.505Z,13.7
2017-03-09T12:17:17.060Z,13.6
2017-03-09T12:22:02.726Z,13.6
2017-03-09T12:27:03.643Z,13.6
2017-03-09T12:32:13.093Z,13.5
2017-03-09T12:37:02.652Z,13.6
2017-03-09T12:42:03.239Z,13.6
2017-03-09T12:47:13.073Z,13.7
2017-03-09T12:52:02.717Z,13.7
2017-03-09T12:57:03.505Z,13.9
2017-03-09T13:02:13.506Z,14.5
2017-03-09T13:07:03.469Z,14.5
2017-03-09T13:12:02.690Z,14.5
2017-03-09T13:17:13.367Z,13.9
2017-03-09T13:22:02.682Z,13.9
2017-03-09T13:27:02.978Z,13.9
2017-03-09T13:32:13.843Z,13.7
2017-03-09T13:37:03.211Z,13.7
2017-03-09T13:42:02.825Z,13.7
2017-03-09T13:47:13.313Z,13.8
2017-03-09T13:52:02.799Z,14.0
2017-03-09T13:57:03.581Z,14.8
2017-03-09T14:02:12.646Z,14.9
2017-03-09T14:07:03.236Z,14.9
2017-03-09T14:12:03.164Z,15.2
2017-03-09T14:17:13.666Z,15.3
2017-03-09T14:22:03.007Z,15.2
2017-03-09T14:27:03.649Z,15.3
2017-03-09T14:32:17.579Z,15.5
2017-03-09T14:37:02.851Z,15.8
2017-03-09T14:42:03.112Z,16.1
2017-03-09T14:47:13.641Z,15.5
2017-03-09T14:52:02.643Z,15.5
2017-03-09T14:57:02.691Z,15.0
2017-03-09T15:02:17.203Z,14.9
2017-03-09T15:07:02.857Z,14.9
2017-03-09T15:12:03.434Z,14.7
2017-03-09T15:17:13.693Z,14.8
2017-03-09T15:22:03.048Z,14.8
2017-03-09T15:27:03.044Z,15.2
2017-03-09T15:32:17.664Z,14.9
2017-03-09T15:37:03.186Z,14.8
2017-03-09T15:42:03.048Z,14.6
2017-03-09T15:47:17.679Z,14.3
2017-03-09T15:52:02.645Z,14.5
2017-03-09T15:57:02.991Z,14.4
2017-03-09T16:02:16.469Z,14.5
2017-03-09T16:07:02.880Z,14.4
2017-03-09T16:12:02.737Z,14.3
2017-03-09T16:17:17.940Z,14.3
2017-03-09T16:22:02.801Z,14.4
2017-03-09T16:27:03.328Z,14.4
2017-03-09T16:32:12.774Z,14.1
2017-03-09T16:37:03.210Z,14.1
2017-03-09T16:42:03.267Z,13.8
2017-03-09T16:47:18.064Z,13.5
2017-03-09T16:52:03.124Z,13.6
2017-03-09T16:57:02.853Z,13.5
2017-03-09T17:02:12.808Z,13.4
2017-03-09T17:07:02.837Z,13.1
2017-03-09T17:12:03.523Z,13.1
2017-03-09T17:17:13.520Z,12.8
2017-03-09T17:22:03.298Z,12.8
2017-03-09T17:27:03.185Z,12.5
2017-03-09T17:32:13.191Z,12.3
2017-03-09T17:37:03.327Z,12.2
2017-03-09T17:42:02.951Z,12.2
2017-03-09T17:47:15.534Z,12.1
2017-03-09T17:52:03.030Z,12.2
2017-03-09T17:57:03.183Z,12.2
2017-03-09T18:02:08.003Z,12.1
2017-03-09T18:07:03.111Z,12.1
2017-03-09T18:12:03.546Z,12.1
2017-03-09T18:17:03.144Z,12.1
2017-03-09T18:22:03.256Z,12.1
2017-03-09T18:27:03.124Z,12.1
2017-03-09T18:32:03.073Z,12.1
2017-03-09T18:37:02.839Z,12.1
2017-03-09T18:42:02.762Z,12.1
2017-03-09T18:47:03.481Z,12.1
2017-03-09T18:52:02.908Z,12.1
2017-03-09T18:57:03.387Z,12.2
2017-03-09T19:02:02.776Z,12.1
2017-03-09T19:07:02.851Z,12.1
2017-03-09T19:12:03.157Z,12.1
2017-03-09T19:17:03.412Z,12.1
2017-03-09T19:22:02.845Z,12.0
2017-03-09T19:27:03.620Z,11.9
2017-03-09T19:32:02.851Z,11.8
2017-03-09T19:37:03.001Z,11.7
2017-03-09T19:42:02.931Z,11.6
2017-03-09T19:47:03.199Z,11.6
2017-03-09T19:52:02.820Z,11.5
2017-03-09T19:57:03.010Z,11.5
2017-03-09T20:02:02.947Z,11.4
2017-03-09T20:07:03.014Z,11.4
2017-03-09T20:12:03.637Z,11.4
2017-03-09T20:17:03.620Z,11.4
2017-03-09T20:22:03.341Z,11.4
2017-03-09T20:27:03.006Z,11.3
2017-03-09T20:32:03.048Z,11.3
2017-03-09T20:37:03.510Z,11.2
2017-03-09T20:42:02.697Z,11.2
2017-03-09T20:47:04.091Z,11.1
2017-03-09T20:52:03.168Z,11.1
2017-03-09T20:57:03.745Z,11.0
2017-03-09T21:02:03.186Z,11.1
2017-03-09T21:07:03.578Z,11.2
2017-03-09T21:12:03.477Z,11.1
2017-03-09T21:17:03.141Z,11.2
2017-03-09T21:22:03.338Z,11.2
2017-03-09T21:27:03.351Z,11.2
2017-03-09T21:32:03.636Z,11.2
2017-03-09T21:37:03.783Z,11.2
2017-03-09T21:42:02.594Z,11.1
2017-03-09T21:47:03.395Z,11.1
2017-03-09T21:52:02.620Z,11.0
2017-03-09T21:57:03.437Z,11.1
2017-03-09T22:02:03.184Z,11.0
2017-03-09T22:07:03.583Z,11.0
2017-03-09T22:12:03.415Z,11.0
2017-03-09T22:17:03.456Z,11.0
2017-03-09T22:22:03.579Z,10.9
2017-03-09T22:27:03.137Z,10.9
2017-03-09T22:32:03.269Z,10.8
2017-03-09T22:37:02.847Z,10.7
2017-03-09T22:42:03.240Z,10.7
2017-03-09T22:47:03.326Z,10.6
2017-03-09T22:52:02.719Z,10.6
2017-03-09T22:57:02.697Z,10.6
2017-03-09T23:02:02.840Z,10.5
2017-03-09T23:07:03.358Z,10.5
2017-03-09T23:12:03.468Z,10.4
2017-03-09T23:22:03.607Z,10.3
2017-03-09T23:27:02.806Z,10.3
2017-03-09T23:32:03.541Z,10.2
2017-03-09T23:37:03.054Z,10.2
2017-03-09T23:42:02.959Z,10.2
2017-03-09T23:47:03.282Z,10.1
2017-03-09T23:52:02.887Z,10.2
2017-03-09T23:57:03.705Z,10.1
